createdAt,value
2023-05-18T07:59:25.092Z,5.38
2023-05-18T08:02:16.731Z,5.90
2023-05-18T08:05:08.094Z,6.28
2023-05-18T08:07:58.545Z,4.97
2023-05-18T08:10:48.921Z,4.47
2023-05-18T08:13:39.417Z,3.95
2023-05-18T08:16:29.493Z,4.07
2023-05-18T08:19:20.086Z,3.88
2023-05-18T08:22:11.258Z,3.95
2023-05-18T08:25:01.681Z,3.03
2023-05-18T08:27:51.698Z,3.22
2023-05-18T08:30:42.194Z,2.95
2023-05-18T08:33:32.677Z,2.80
2023-05-18T08:36:22.901Z,3.00
2023-05-18T08:39:13.310Z,2.78
2023-05-18T08:42:19.053Z,3.17
2023-05-18T08:45:20.440Z,3.17
2023-05-18T08:48:13.061Z,3.22
2023-05-18T08:51:05.555Z,2.80
2023-05-18T08:53:55.704Z,2.70
2023-05-18T08:56:46.824Z,2.80
2023-05-18T08:59:41.395Z,2.92
2023-05-18T09:02:33.551Z,3.08
2023-05-18T09:05:24.004Z,3.17
2023-05-18T09:08:14.610Z,2.75
2023-05-18T09:11:06.065Z,3.30
2023-05-18T09:13:56.573Z,3.08
2023-05-18T09:16:46.834Z,3.00
2023-05-18T09:19:37.288Z,2.78
2023-05-18T09:22:27.687Z,2.90
2023-05-18T09:25:18.526Z,2.63
2023-05-18T09:28:08.994Z,2.63
2023-05-18T09:30:59.045Z,2.70
2023-05-18T09:33:50.361Z,2.45
2023-05-18T09:36:42.505Z,2.35
2023-05-18T09:39:32.943Z,2.20
2023-05-18T09:42:37.039Z,2.67
2023-05-18T09:45:28.562Z,2.38
2023-05-18T09:48:19.248Z,2.58
2023-05-18T09:51:16.135Z,2.30
2023-05-18T09:54:10.210Z,2.40
2023-05-18T09:57:10.366Z,2.28
2023-05-18T10:00:10.331Z,2.20
2023-05-18T10:03:01.143Z,2.03
2023-05-18T10:05:51.875Z,2.30
2023-05-18T10:08:42.146Z,2.50
2023-05-18T10:11:33.429Z,2.53
2023-05-18T10:14:25.487Z,2.00
2023-05-18T10:17:17.266Z,1.90
2023-05-18T10:20:09.857Z,2.13
2023-05-18T10:23:03.507Z,2.63
2023-05-18T10:28:47.418Z,1.98
2023-05-18T10:31:39.044Z,1.75
2023-05-18T10:34:33.220Z,2.03
2023-05-18T10:40:15.429Z,2.67
2023-05-18T10:43:06.525Z,3.13
2023-05-18T10:46:01.214Z,2.97
2023-05-18T10:48:53.726Z,3.20
2023-05-18T10:51:45.318Z,2.88
2023-05-18T10:54:36.921Z,2.60
2023-05-18T10:57:36.912Z,2.50
2023-05-18T11:00:27.257Z,2.40
2023-05-18T11:03:18.690Z,2.60
2023-05-18T11:06:13.004Z,2.47
2023-05-18T11:09:03.717Z,2.42
2023-05-18T11:11:56.781Z,2.40
2023-05-18T11:14:50.364Z,2.58
2023-05-18T11:17:40.563Z,2.97
2023-05-18T11:20:30.888Z,2.00
2023-05-18T11:23:23.851Z,2.50
2023-05-18T11:26:16.376Z,2.42
2023-05-18T11:29:17.525Z,2.60
2023-05-18T11:32:29.997Z,2.30
2023-05-18T11:35:24.396Z,2.20
2023-05-18T11:38:14.725Z,2.80
2023-05-18T11:41:05.142Z,2.50
2023-05-18T11:44:16.751Z,2.40
2023-05-18T11:47:11.663Z,2.13
2023-05-18T11:50:06.057Z,2.08
2023-05-18T11:52:57.129Z,2.13
2023-05-18T11:55:47.538Z,2.03
2023-05-18T11:58:38.087Z,2.13
2023-05-18T12:01:29.742Z,2.25
2023-05-18T12:04:20.169Z,1.42
2023-05-18T12:07:10.637Z,2.28
2023-05-18T12:10:03.446Z,1.90
2023-05-18T12:12:54.129Z,1.92
2023-05-18T12:15:45.601Z,2.10
2023-05-18T12:18:36.494Z,1.83
2023-05-18T12:21:26.643Z,1.77
2023-05-18T12:24:16.952Z,2.38
2023-05-18T12:27:09.823Z,1.85
2023-05-18T12:30:00.313Z,1.70
2023-05-18T12:32:55.928Z,1.63
2023-05-18T12:35:45.836Z,1.67
2023-05-18T12:38:36.142Z,1.73
2023-05-18T12:41:27.347Z,2.00
2023-05-18T12:44:17.737Z,1.80
2023-05-18T12:47:07.874Z,1.50
2023-05-18T12:50:02.319Z,1.98
2023-05-18T12:52:52.770Z,1.80
2023-05-18T12:55:43.170Z,1.52
2023-05-18T12:58:33.086Z,1.95
2023-05-18T13:01:24.995Z,1.65
2023-05-18T13:04:15.997Z,1.80
2023-05-18T13:07:06.464Z,1.77
2023-05-18T13:10:06.129Z,1.83
2023-05-18T13:13:03.572Z,2.10
2023-05-18T13:15:53.953Z,1.63
2023-05-18T13:18:46.758Z,1.58
2023-05-18T13:21:37.745Z,1.50
2023-05-18T13:24:27.782Z,1.92
2023-05-18T13:27:18.065Z,1.50
2023-05-18T13:30:09.062Z,1.40
2023-05-18T13:33:00.189Z,1.50
2023-05-18T13:35:50.663Z,1.77
2023-05-18T13:38:41.399Z,1.63
2023-05-18T13:41:31.828Z,1.58
2023-05-18T13:44:22.312Z,1.52
2023-05-18T13:47:12.820Z,1.70
2023-05-18T13:50:03.406Z,1.45
2023-05-18T13:52:53.968Z,1.40
2023-05-18T13:55:44.473Z,1.40
2023-05-18T13:58:36.029Z,1.35
2023-05-18T14:01:26.806Z,1.50
2023-05-18T14:04:17.032Z,2.15
2023-05-18T14:07:09.476Z,1.23
2023-05-18T14:09:59.898Z,1.88
2023-05-18T14:12:50.240Z,1.40
2023-05-18T14:15:40.800Z,1.17
2023-05-18T14:18:31.241Z,1.50
2023-05-18T14:21:21.780Z,1.50
2023-05-18T14:24:12.327Z,1.20
2023-05-18T14:27:02.711Z,1.60
2023-05-18T14:29:53.369Z,1.50
2023-05-18T14:32:43.678Z,1.73
2023-05-18T14:35:34.134Z,1.80
2023-05-18T14:38:26.821Z,1.20
2023-05-18T14:41:16.961Z,1.30
2023-05-18T14:44:09.915Z,1.35
2023-05-18T14:47:00.006Z,1.52
2023-05-18T14:49:50.303Z,1.40
2023-05-18T14:52:41.257Z,1.52
2023-05-18T14:55:31.689Z,1.25
2023-05-18T14:58:22.231Z,1.52
2023-05-18T15:01:12.306Z,1.30
2023-05-18T15:04:02.778Z,1.10
2023-05-18T15:06:53.373Z,1.40
2023-05-18T15:09:43.570Z,1.27
